createdAt,value
2018-06-19T00:01:28.585Z,26.12
2018-06-19T00:03:59.281Z,26.28
2018-06-19T00:06:29.945Z,26.41
2018-06-19T00:09:00.090Z,26.21
2018-06-19T00:11:30.707Z,26.15
2018-06-19T00:14:01.077Z,26.17
2018-06-19T00:16:31.656Z,26.07
2018-06-19T00:19:02.625Z,26.22
2018-06-19T00:21:39.409Z,26.24
2018-06-19T00:24:10.095Z,26.26
2018-06-19T00:26:40.196Z,26.05
2018-06-19T00:29:11.222Z,26.01
2018-06-19T00:31:41.953Z,26.15
2018-06-19T00:34:12.830Z,26.18
2018-06-19T00:36:43.458Z,26.21
2018-06-19T00:39:14.268Z,26.31
2018-06-19T00:41:45.003Z,26.18
2018-06-19T00:44:15.771Z,26.22
2018-06-19T00:46:49.711Z,26.21
2018-06-19T00:49:20.569Z,26.33
2018-06-19T00:51:51.255Z,26.04
2018-06-19T00:54:22.121Z,26.07
2018-06-19T00:56:57.253Z,26.25
2018-06-19T00:59:29.116Z,26.01
2018-06-19T01:02:01.576Z,25.96
2018-06-19T01:04:32.299Z,25.86
2018-06-19T01:07:02.981Z,26.04
2018-06-19T01:09:33.628Z,25.99
2018-06-19T01:12:05.162Z,25.90
2018-06-19T01:14:36.004Z,25.77
2018-06-19T01:17:06.629Z,25.88
2018-06-19T01:19:37.108Z,25.83
2018-06-19T01:22:07.799Z,25.95
2018-06-19T01:24:38.654Z,25.80
2018-06-19T01:27:09.601Z,25.68
2018-06-19T01:29:40.349Z,25.53
2018-06-19T01:32:11.182Z,25.74
2018-06-19T01:34:41.910Z,25.73
2018-06-19T01:37:12.546Z,25.72
2018-06-19T01:39:43.309Z,25.68
2018-06-19T01:42:14.054Z,25.69
2018-06-19T01:44:44.593Z,25.81
2018-06-19T01:47:15.276Z,25.53
2018-06-19T01:49:46.038Z,25.61
2018-06-19T01:52:16.253Z,25.69
2018-06-19T01:54:46.762Z,25.62
2018-06-19T01:57:17.221Z,25.34
2018-06-19T01:59:48.018Z,25.27
2018-06-19T02:02:18.702Z,25.24
2018-06-19T02:04:49.137Z,25.37
2018-06-19T02:07:19.862Z,25.39
2018-06-19T02:09:50.647Z,25.09
2018-06-19T02:12:21.384Z,25.33
2018-06-19T02:14:52.222Z,25.24
2018-06-19T02:17:22.952Z,25.02
2018-06-19T02:19:53.866Z,25.08
2018-06-19T02:22:24.574Z,25.12
2018-06-19T02:24:55.164Z,25.15
2018-06-19T02:27:25.889Z,25.15
2018-06-19T02:29:56.573Z,25.17
2018-06-19T02:32:27.355Z,25.14
2018-06-19T02:34:58.182Z,25.15
2018-06-19T02:37:28.717Z,25.14
2018-06-19T02:39:59.601Z,25.13
2018-06-19T02:42:30.099Z,24.96
2018-06-19T02:45:01.049Z,25.04
2018-06-19T02:47:31.807Z,24.89
2018-06-19T02:50:03.369Z,24.96
2018-06-19T02:52:34.147Z,24.85
2018-06-19T02:55:04.711Z,24.89
2018-06-19T02:57:34.826Z,25.22
2018-06-19T03:00:06.310Z,24.94
2018-06-19T03:02:37.126Z,25.01
2018-06-19T03:05:08.001Z,24.78
2018-06-19T03:07:38.758Z,24.99
2018-06-19T03:10:09.634Z,24.96
2018-06-19T03:12:39.718Z,24.90
2018-06-19T03:15:10.383Z,24.98
2018-06-19T03:17:40.948Z,24.93
2018-06-19T03:20:11.573Z,24.85
2018-06-19T03:22:42.234Z,24.78
2018-06-19T03:25:13.101Z,25.04
2018-06-19T03:27:43.913Z,24.98
2018-06-19T03:30:14.735Z,24.85
2018-06-19T03:32:45.421Z,24.86
2018-06-19T03:35:15.752Z,24.87
2018-06-19T03:37:46.586Z,25.07
2018-06-19T03:40:17.528Z,25.09
2018-06-19T03:42:48.258Z,25.15
2018-06-19T03:45:19.139Z,25.27
2018-06-19T03:47:49.565Z,25.66
2018-06-19T03:50:20.286Z,25.63
2018-06-19T03:52:50.914Z,25.35
2018-06-19T03:55:21.641Z,25.43
2018-06-19T03:57:52.293Z,25.48
2018-06-19T04:00:23.029Z,25.66
2018-06-19T04:02:53.461Z,25.54
2018-06-19T04:05:24.226Z,25.44
2018-06-19T04:07:55.075Z,25.57
2018-06-19T04:10:25.963Z,25.62
2018-06-19T04:12:56.100Z,25.80
2018-06-19T04:15:27.006Z,25.84
2018-06-19T04:17:57.645Z,26.01
2018-06-19T04:20:28.261Z,25.90
2018-06-19T04:22:58.841Z,25.74
2018-06-19T04:25:29.516Z,25.81
2018-06-19T04:28:00.198Z,25.88
2018-06-19T04:30:30.881Z,26.03
2018-06-19T04:33:01.558Z,26.14
2018-06-19T04:35:32.502Z,26.27
2018-06-19T04:38:02.733Z,26.35
2018-06-19T04:40:33.465Z,26.63
2018-06-19T04:43:04.421Z,26.79
2018-06-19T04:45:34.926Z,26.82
2018-06-19T04:48:05.809Z,27.26
2018-06-19T04:50:36.447Z,27.34
2018-06-19T04:53:07.325Z,27.96
2018-06-19T04:55:38.151Z,27.88
2018-06-19T04:58:08.885Z,28.08
2018-06-19T05:00:38.973Z,28.01
2018-06-19T05:03:09.641Z,28.80
2018-06-19T05:05:39.821Z,29.18
2018-06-19T05:08:10.573Z,29.40
2018-06-19T05:10:42.173Z,29.45
2018-06-19T05:13:12.950Z,29.44
2018-06-19T05:15:43.669Z,29.30
2018-06-19T05:18:14.722Z,29.18
2018-06-19T05:20:45.269Z,29.77
2018-06-19T05:23:16.185Z,29.74
2018-06-19T05:25:46.866Z,30.04
2018-06-19T05:28:17.517Z,30.11
2018-06-19T05:30:48.174Z,30.37
2018-06-19T05:33:18.933Z,30.84
2018-06-19T05:35:49.549Z,30.94
2018-06-19T05:38:20.335Z,30.92
2018-06-19T05:40:51.004Z,31.13
2018-06-19T05:43:22.005Z,30.95
2018-06-19T05:45:53.618Z,30.95
2018-06-19T05:48:24.309Z,31.38
2018-06-19T05:50:55.120Z,31.31
2018-06-19T05:53:25.853Z,31.53
2018-06-19T05:55:56.431Z,31.33
2018-06-19T05:58:27.138Z,31.71
2018-06-19T06:00:57.794Z,31.80
2018-06-19T06:03:28.590Z,31.99
2018-06-19T06:05:59.265Z,31.60
2018-06-19T06:08:30.147Z,31.91
2018-06-19T06:11:00.249Z,31.81
2018-06-19T06:13:30.496Z,31.92
2018-06-19T06:16:01.091Z,32.07
2018-06-19T06:18:31.961Z,32.44
2018-06-19T06:21:02.694Z,32.65
2018-06-19T06:23:33.401Z,32.80
2018-06-19T06:26:04.002Z,33.31
2018-06-19T06:28:34.878Z,32.95
2018-06-19T06:31:04.976Z,33.49
2018-06-19T06:33:36.117Z,33.40
2018-06-19T06:36:07.350Z,33.15
2018-06-19T06:38:38.070Z,33.32
2018-06-19T06:41:08.925Z,33.11
2018-06-19T06:43:39.778Z,33.54
2018-06-19T06:46:10.534Z,33.82
2018-06-19T06:48:40.864Z,34.22
2018-06-19T06:51:11.649Z,34.14
2018-06-19T06:53:42.372Z,34.75
2018-06-19T06:56:13.166Z,34.50
2018-06-19T06:58:43.957Z,34.37
2018-06-19T07:01:14.697Z,34.30
2018-06-19T07:03:45.473Z,34.62
2018-06-19T07:06:16.084Z,34.30
2018-06-19T07:08:47.119Z,33.58
2018-06-19T07:11:17.823Z,34.63
2018-06-19T07:13:48.682Z,35.25
2018-06-19T07:16:19.599Z,35.49
2018-06-19T07:18:50.203Z,35.50
2018-06-19T07:21:22.983Z,35.86
2018-06-19T07:23:56.675Z,35.99
2018-06-19T07:26:27.447Z,35.96
2018-06-19T07:28:58.134Z,35.70
2018-06-19T07:31:28.754Z,36.10
2018-06-19T07:33:59.397Z,36.01
2018-06-19T07:36:30.072Z,36.92
2018-06-19T07:39:00.981Z,36.91
2018-06-19T07:41:31.687Z,37.35
2018-06-19T07:44:02.407Z,37.11
2018-06-19T07:46:33.002Z,37.09
2018-06-19T07:49:03.878Z,37.37
2018-06-19T07:51:34.581Z,36.80
2018-06-19T07:54:05.596Z,35.88
2018-06-19T07:56:36.712Z,35.52
2018-06-19T07:59:08.770Z,34.16
2018-06-19T08:01:39.868Z,34.48
2018-06-19T08:04:11.653Z,34.32
2018-06-19T08:06:42.289Z,34.34
2018-06-19T08:09:13.225Z,34.64
2018-06-19T08:11:43.845Z,34.63
2018-06-19T08:14:14.798Z,35.58
2018-06-19T08:16:45.495Z,36.41
2018-06-19T08:19:16.485Z,36.11
2018-06-19T08:21:47.225Z,36.42
2018-06-19T08:24:18.460Z,36.12
2018-06-19T08:26:50.371Z,36.32
2018-06-19T08:29:21.506Z,36.53
2018-06-19T08:31:53.050Z,36.33
2018-06-19T08:34:24.150Z,36.59
2018-06-19T08:36:55.269Z,36.45
2018-06-19T08:39:25.887Z,35.96
2018-06-19T08:42:05.284Z,35.68
2018-06-19T08:44:37.575Z,35.53
2018-06-19T08:47:08.598Z,35.21
2018-06-19T08:49:39.046Z,34.79
2018-06-19T08:52:10.053Z,34.30
2018-06-19T08:54:41.622Z,34.15
2018-06-19T08:57:13.069Z,33.03
2018-06-19T08:59:43.421Z,32.78
2018-06-19T09:02:15.256Z,32.75
2018-06-19T09:04:46.663Z,32.63
2018-06-19T09:07:18.035Z,32.46
2018-06-19T09:09:48.642Z,32.70
2018-06-19T09:12:19.601Z,32.75
2018-06-19T09:14:50.635Z,32.35
2018-06-19T09:17:21.659Z,32.10
2018-06-19T09:19:52.879Z,32.80
2018-06-19T09:22:24.403Z,33.51
2018-06-19T09:24:56.319Z,35.00
2018-06-19T09:27:27.440Z,35.62
2018-06-19T09:29:58.399Z,35.37
2018-06-19T09:32:29.213Z,34.46
2018-06-19T09:35:00.356Z,34.27
2018-06-19T09:37:31.705Z,35.19
2018-06-19T09:40:03.009Z,35.40
2018-06-19T09:42:33.691Z,35.80
2018-06-19T09:45:04.604Z,35.11
2018-06-19T09:47:37.211Z,35.41
2018-06-19T09:50:08.161Z,35.54
2018-06-19T09:52:38.875Z,35.21
2018-06-19T09:55:10.631Z,36.27
2018-06-19T09:57:42.435Z,37.71
2018-06-19T10:00:18.729Z,37.31
2018-06-19T10:02:49.162Z,37.09
2018-06-19T10:05:20.089Z,35.53
2018-06-19T10:07:51.846Z,35.97
2018-06-19T10:10:23.030Z,35.91
2018-06-19T10:12:53.996Z,35.37
2018-06-19T10:15:24.901Z,34.47
2018-06-19T10:17:55.117Z,35.20
2018-06-19T10:20:25.613Z,37.58
2018-06-19T10:22:56.461Z,37.12
2018-06-19T10:25:27.102Z,37.41
2018-06-19T10:27:57.558Z,38.28
2018-06-19T10:30:29.207Z,39.35
2018-06-19T10:33:00.462Z,40.07
2018-06-19T10:35:31.371Z,37.85
2018-06-19T10:38:01.809Z,37.12
2018-06-19T10:40:32.184Z,37.44
2018-06-19T10:43:02.551Z,37.62
2018-06-19T10:45:32.778Z,37.35
2018-06-19T10:48:02.690Z,37.56
2018-06-19T10:50:32.590Z,37.85
2018-06-19T10:53:02.461Z,37.79
2018-06-19T10:55:33.058Z,37.02
2018-06-19T10:58:03.377Z,37.98
2018-06-19T11:00:33.815Z,36.85
2018-06-19T11:03:04.358Z,37.74
2018-06-19T11:05:35.090Z,39.00
2018-06-19T11:08:05.469Z,37.36
2018-06-19T11:10:35.991Z,35.49
2018-06-19T11:13:06.790Z,35.63
2018-06-19T11:15:37.699Z,35.73
2018-06-19T11:18:08.029Z,37.64
2018-06-19T11:20:40.134Z,39.02
2018-06-19T11:24:40.403Z,38.99
2018-06-19T11:27:11.366Z,36.44
2018-06-19T11:29:42.641Z,37.07
2018-06-19T11:32:15.242Z,35.74
2018-06-19T11:34:48.766Z,35.53
2018-06-19T11:37:19.974Z,37.11
2018-06-19T11:39:50.995Z,39.41
2018-06-19T11:42:22.443Z,40.08
2018-06-19T11:44:53.343Z,39.88
2018-06-19T11:47:24.460Z,39.29
2018-06-19T11:49:55.171Z,40.02
2018-06-19T11:52:25.941Z,39.61
2018-06-19T11:54:56.750Z,39.39
2018-06-19T11:57:27.903Z,38.28
2018-06-19T11:59:58.605Z,37.15
2018-06-19T12:02:29.454Z,37.89
2018-06-19T12:05:00.145Z,38.51
2018-06-19T12:07:45.682Z,39.33
2018-06-19T12:10:17.336Z,39.01
2018-06-19T12:12:48.541Z,40.30
2018-06-19T12:15:19.254Z,39.82
2018-06-19T12:17:50.289Z,41.25
2018-06-19T12:20:20.494Z,41.43
2018-06-19T12:22:51.394Z,40.26
2018-06-19T12:25:22.114Z,39.91
2018-06-19T12:27:53.003Z,40.61
2018-06-19T12:30:22.933Z,41.56
2018-06-19T12:32:53.387Z,41.74
2018-06-19T12:35:23.993Z,40.91
2018-06-19T12:37:54.956Z,41.20
2018-06-19T12:40:25.828Z,40.97
2018-06-19T12:42:56.690Z,41.20
2018-06-19T12:45:27.222Z,41.84
2018-06-19T12:47:58.237Z,42.37
2018-06-19T12:51:47.612Z,42.19
2018-06-19T12:54:51.862Z,42.14
2018-06-19T12:57:22.142Z,42.24
2018-06-19T12:59:52.927Z,42.12
2018-06-19T13:02:23.575Z,40.22
2018-06-19T13:05:10.332Z,41.07
2018-06-19T13:07:43.020Z,40.42
2018-06-19T13:10:14.284Z,40.56
2018-06-19T13:13:25.234Z,41.08
2018-06-19T13:15:56.326Z,41.05
2018-06-19T13:18:44.075Z,41.83
2018-06-19T13:21:14.805Z,42.02
2018-06-19T13:23:45.465Z,41.31
2018-06-19T13:26:16.150Z,40.35
2018-06-19T13:30:01.906Z,39.17
2018-06-19T13:32:33.469Z,38.04
2018-06-19T13:35:04.668Z,38.05
2018-06-19T13:37:36.258Z,38.33
2018-06-19T13:41:29.987Z,37.81
2018-06-19T13:44:17.030Z,38.32
2018-06-19T13:46:47.861Z,39.10
2018-06-19T13:49:18.989Z,40.08
2018-06-19T13:51:49.886Z,39.82
2018-06-19T13:54:20.814Z,40.18
2018-06-19T13:57:52.522Z,39.35
2018-06-19T14:00:23.371Z,38.43
2018-06-19T14:02:54.013Z,37.43
2018-06-19T14:05:25.034Z,36.62
2018-06-19T14:08:13.079Z,36.14
2018-06-19T14:11:00.206Z,37.85
2018-06-19T14:13:30.317Z,38.77
2018-06-19T14:16:01.447Z,38.34
2018-06-19T14:18:32.606Z,37.12
2018-06-19T14:21:03.390Z,36.84
2018-06-19T14:23:34.171Z,37.26
2018-06-19T14:26:04.969Z,36.71
2018-06-19T14:28:35.742Z,37.13
2018-06-19T14:31:06.573Z,36.86
2018-06-19T14:33:36.739Z,36.94
2018-06-19T14:36:07.649Z,37.08
2018-06-19T14:38:38.303Z,36.81
2018-06-19T14:41:09.083Z,36.31
2018-06-19T14:43:39.871Z,35.96
2018-06-19T14:46:10.707Z,35.75
2018-06-19T14:48:41.606Z,36.10
2018-06-19T14:51:12.592Z,35.97
2018-06-19T14:53:43.166Z,35.74
2018-06-19T14:56:14.014Z,35.72
2018-06-19T14:58:44.847Z,35.54
2018-06-19T15:01:15.635Z,36.07
2018-06-19T15:03:46.399Z,36.52
2018-06-19T15:06:17.290Z,36.87
2018-06-19T15:08:48.022Z,37.26
2018-06-19T15:11:18.851Z,37.41
2018-06-19T15:13:49.533Z,37.99
2018-06-19T15:16:21.338Z,37.87
2018-06-19T15:18:52.129Z,38.29
2018-06-19T15:21:23.042Z,38.16
2018-06-19T15:23:53.750Z,37.96
2018-06-19T15:26:24.674Z,37.78
2018-06-19T15:28:55.423Z,37.73
2018-06-19T15:31:26.149Z,37.90
2018-06-19T15:33:56.890Z,38.02
2018-06-19T15:36:27.698Z,37.41
2018-06-19T15:38:58.566Z,36.94
2018-06-19T15:41:31.021Z,37.42
2018-06-19T15:44:01.712Z,37.93
2018-06-19T15:46:32.429Z,37.91
2018-06-19T15:49:03.277Z,37.90
2018-06-19T15:51:34.290Z,37.68
2018-06-19T15:54:05.222Z,37.29
2018-06-19T15:56:35.996Z,37.35
2018-06-19T15:59:06.132Z,36.75
2018-06-19T16:01:37.199Z,37.32
2018-06-19T16:04:08.041Z,37.19
2018-06-19T16:06:39.013Z,37.02
2018-06-19T16:09:11.568Z,36.66
2018-06-19T16:11:42.390Z,36.49
2018-06-19T16:14:13.042Z,36.50
2018-06-19T16:16:44.038Z,36.15
2018-06-19T16:19:14.822Z,36.36
2018-06-19T16:21:45.601Z,36.47
2018-06-19T16:24:16.281Z,35.84
2018-06-19T16:26:47.117Z,35.44
2018-06-19T16:29:18.069Z,35.26
2018-06-19T16:31:49.689Z,35.51
2018-06-19T16:34:20.230Z,35.94
2018-06-19T16:36:51.902Z,35.96
2018-06-19T16:39:22.635Z,35.63
2018-06-19T16:41:53.319Z,35.65
2018-06-19T16:44:23.955Z,35.31
2018-06-19T16:46:54.834Z,35.03
2018-06-19T16:49:25.014Z,35.33
2018-06-19T16:51:55.866Z,35.40
2018-06-19T16:54:26.705Z,35.10
2018-06-19T16:56:57.426Z,35.01
2018-06-19T16:59:28.142Z,34.99
2018-06-19T17:01:58.810Z,34.36
2018-06-19T17:04:29.446Z,34.59
2018-06-19T17:07:00.321Z,34.52
2018-06-19T17:09:31.176Z,34.36
2018-06-19T17:12:02.221Z,34.06
2018-06-19T17:14:32.791Z,34.07
2018-06-19T17:17:03.719Z,33.66
2018-06-19T17:19:34.361Z,33.81
2018-06-19T17:22:05.198Z,33.81
2018-06-19T17:24:35.821Z,33.44
2018-06-19T17:27:06.823Z,33.49
2018-06-19T17:29:37.589Z,33.30
2018-06-19T17:32:08.586Z,33.18
2018-06-19T17:34:39.321Z,32.95
2018-06-19T17:37:09.633Z,32.67
2018-06-19T17:39:40.332Z,32.65
2018-06-19T17:42:11.202Z,32.65
2018-06-19T17:44:41.224Z,32.51
2018-06-19T17:47:12.194Z,32.34
2018-06-19T17:49:42.905Z,32.12
2018-06-19T17:52:13.879Z,32.01
2018-06-19T17:54:44.635Z,31.97
2018-06-19T17:57:15.490Z,31.87
2018-06-19T17:59:46.021Z,31.74
2018-06-19T18:02:16.862Z,31.71
2018-06-19T18:04:47.563Z,31.60
2018-06-19T18:07:18.498Z,31.47
2018-06-19T18:09:49.117Z,31.41
2018-06-19T18:12:19.917Z,31.36
2018-06-19T18:14:50.113Z,31.35
2018-06-19T18:17:20.678Z,31.21
2018-06-19T18:19:51.269Z,31.10
2018-06-19T18:22:22.107Z,31.06
2018-06-19T18:24:52.779Z,30.98
2018-06-19T18:27:23.417Z,30.87
2018-06-19T18:29:54.130Z,30.81
2018-06-19T18:32:25.118Z,30.74
2018-06-19T18:34:55.808Z,30.56
2018-06-19T18:37:26.662Z,30.35
2018-06-19T18:39:57.308Z,30.18
2018-06-19T18:42:28.294Z,30.07
2018-06-19T18:44:59.166Z,29.93
2018-06-19T18:47:30.073Z,29.89
2018-06-19T18:50:00.222Z,29.83
2018-06-19T18:52:31.981Z,29.63
2018-06-19T18:55:02.447Z,29.47
2018-06-19T18:57:32.501Z,29.35
2018-06-19T19:00:03.214Z,29.26
2018-06-19T19:02:34.411Z,29.14
2018-06-19T19:05:05.193Z,29.05
2018-06-19T19:07:35.993Z,28.76
2018-06-19T19:10:11.489Z,28.30
2018-06-19T19:12:42.485Z,28.47
2018-06-19T19:15:18.109Z,28.64
2018-06-19T19:17:54.613Z,28.55
2018-06-19T19:20:25.315Z,28.56
2018-06-19T19:22:56.083Z,28.47
2018-06-19T19:25:26.217Z,28.49
2018-06-19T19:28:01.647Z,28.47
2018-06-19T19:30:32.266Z,28.44
2018-06-19T19:33:03.245Z,28.44
2018-06-19T19:35:33.912Z,28.41
2018-06-19T19:38:09.706Z,28.47
2018-06-19T19:40:40.386Z,28.43
2018-06-19T19:43:11.734Z,28.58
2018-06-19T19:45:42.364Z,28.43
2018-06-19T19:48:17.899Z,28.21
2018-06-19T19:50:48.443Z,28.11
2018-06-19T19:53:19.294Z,28.01
2018-06-19T19:55:54.839Z,27.91
2018-06-19T19:58:30.387Z,27.74
2018-06-19T20:01:01.107Z,27.70
2018-06-19T20:03:31.733Z,27.73
2018-06-19T20:06:02.353Z,27.78
2018-06-19T20:08:33.141Z,27.75
2018-06-19T20:11:03.765Z,27.72
2018-06-19T20:13:34.514Z,27.69
2018-06-19T20:16:05.202Z,27.66
2018-06-19T20:18:35.965Z,27.43
2018-06-19T20:21:06.715Z,27.40
2018-06-19T20:23:37.500Z,27.33
2018-06-19T20:26:08.206Z,27.31
2018-06-19T20:28:39.118Z,27.34
2018-06-19T20:31:09.855Z,27.39
2018-06-19T20:33:40.666Z,27.54
2018-06-19T20:36:11.277Z,27.44
2018-06-19T20:38:42.069Z,27.47
2018-06-19T20:41:12.747Z,27.38
2018-06-19T20:43:43.691Z,27.25
2018-06-19T20:46:14.373Z,27.51
2018-06-19T20:48:45.010Z,27.55
2018-06-19T20:51:15.467Z,27.54
2018-06-19T20:53:46.727Z,27.27
2018-06-19T20:56:17.512Z,27.02
2018-06-19T20:58:48.360Z,26.89
2018-06-19T21:01:19.073Z,26.82
2018-06-19T21:03:49.977Z,26.68
2018-06-19T21:06:20.744Z,26.59
2018-06-19T21:08:51.745Z,26.24
2018-06-19T21:11:22.346Z,26.06
2018-06-19T21:13:53.333Z,26.00
2018-06-19T21:16:23.985Z,26.25
2018-06-19T21:18:54.701Z,26.40
2018-06-19T21:21:25.373Z,26.21
2018-06-19T21:23:56.094Z,26.31
2018-06-19T21:26:26.781Z,26.31
2018-06-19T21:28:57.565Z,26.23
2018-06-19T21:31:28.278Z,26.10
2018-06-19T21:33:58.651Z,26.06
2018-06-19T21:36:29.296Z,25.96
2018-06-19T21:39:00.013Z,25.97
2018-06-19T21:41:30.690Z,25.98
2018-06-19T21:44:01.519Z,25.99
2018-06-19T21:46:32.166Z,25.91
2018-06-19T21:49:02.512Z,25.95
2018-06-19T21:51:33.318Z,25.97
2018-06-19T21:54:04.289Z,26.07
2018-06-19T21:56:35.911Z,26.20
2018-06-19T21:59:06.400Z,26.17
2018-06-19T22:01:36.978Z,25.92
2018-06-19T22:04:07.226Z,25.97
2018-06-19T22:06:37.975Z,25.69
2018-06-19T22:09:09.334Z,25.83
2018-06-19T22:11:40.007Z,25.76
2018-06-19T22:14:10.679Z,25.58
2018-06-19T22:16:41.270Z,25.77
2018-06-19T22:19:12.286Z,25.83
2018-06-19T22:22:04.124Z,25.83
2018-06-19T22:24:34.694Z,25.82
2018-06-19T22:27:05.269Z,25.71
2018-06-19T22:29:36.065Z,25.81
2018-06-19T22:32:06.712Z,25.77
2018-06-19T22:34:37.401Z,25.83
2018-06-19T22:37:07.486Z,25.78
2018-06-19T22:39:38.281Z,25.71
2018-06-19T22:42:08.983Z,25.94
2018-06-19T22:44:39.597Z,25.97
2018-06-19T22:47:10.304Z,25.92
2018-06-19T22:49:41.341Z,25.88
2018-06-19T22:52:12.010Z,25.77
2018-06-19T22:54:42.416Z,25.62
2018-06-19T22:57:13.018Z,25.69
2018-06-19T22:59:44.011Z,25.53
2018-06-19T23:02:14.497Z,25.56
2018-06-19T23:04:45.331Z,25.66
2018-06-19T23:07:16.139Z,25.66
2018-06-19T23:09:47.002Z,25.45
2018-06-19T23:12:17.630Z,25.44
2018-06-19T23:14:48.366Z,25.34
2018-06-19T23:17:18.993Z,25.44
2018-06-19T23:19:49.661Z,25.42
2018-06-19T23:22:21.222Z,25.35
2018-06-19T23:24:51.581Z,25.30
2018-06-19T23:27:22.314Z,25.26
2018-06-19T23:29:53.253Z,25.32
2018-06-19T23:32:23.886Z,25.36
2018-06-19T23:34:54.734Z,25.41
2018-06-19T23:37:25.419Z,25.24
2018-06-19T23:39:56.009Z,25.20
2018-06-19T23:42:26.621Z,25.41
2018-06-19T23:44:57.623Z,25.32
2018-06-19T23:47:28.416Z,25.32
2018-06-19T23:49:59.303Z,25.63
2018-06-19T23:52:30.354Z,25.53
2018-06-19T23:55:01.420Z,25.56
2018-06-19T23:57:32.069Z,25.72
